Michigan — WDF5344 — position and weather

sailwx.info

Track history (hours):
 
Tides and Currents Weather Stations Pressure Air Temp Water Temp Dewpoint Dewpoint Depression Visibility Wind Speed Wind Dir Waves Ship Positions

Michigan

More information available from US FCC via Universal Licensing System and Coast Guard Vessel Documentation Center.

Last reported at 2014-Aug-22 04:00 UTC. Time now 2014-Aug-23 13:28 UTC.
Position N 43°30' W 082°30'.

Length 144 m; draft 4.3 m.

Type: Ship (hazmat cat D). MMSI: 303583000.

Wind from 070 at 5 knots

Barometer 1015.9 mb
Air temperature 18.8 ° C

Date/timePositionNaut miles runAvg speedWind from/ knotsBaromVisibWave heightAir tempDewpointWater temp
2014-Aug-22 04:00N 43°30' W 082°30'12 4.0 070 / 51015.9 18.8
2014-Aug-22 01:00N 43°42' W 082°30'14110.5 080 / 41015.9 18.3
2014-Aug-21 11:33N 45°41' W 084°17'1010.2
2014-Aug-21 10:33N 45°44' W 084°32'1010.3
2014-Aug-21 09:34N 45°49' W 084°44'1010.2
2014-Aug-21 08:33N 45°50' W 084°59'1010.2
2014-Aug-21 07:34N 45°52' W 085°13'1010.1
2014-Aug-21 06:33N 45°53' W 085°28'10 9.8
2014-Aug-21 05:33N 45°50' W 085°41'1010.3
2014-Aug-21 04:34N 45°46' W 085°54'1010.3
2014-Aug-21 03:34N 45°41' W 086°07'1010.1
2014-Aug-21 02:33N 45°36' W 086°20'45 9.8
2014-Aug-20 22:00N 45°18' W 087°18'67 1.7 230 / 61013.510.8 0.519.5
2014-Aug-19 07:00N 44°18' W 088°00'28 2.4 220 / 71006.7 5.4 17.7
2014-Aug-18 19:00N 44°30' W 087°24'7511.0 130 / 101011.110.8 0.518.3
2014-Aug-18 12:10N 45°33' W 086°27'710.7
2014-Aug-18 11:29N 45°37' W 086°18'1010.7
2014-Aug-18 10:33N 45°42' W 086°05'1110.7
2014-Aug-18 09:33N 45°47' W 085°52'1110.6
2014-Aug-18 08:33N 45°52' W 085°39'1010.3
2014-Aug-18 07:33N 45°53' W 085°24'1110.9
2014-Aug-18 06:33N 45°52' W 085°08'1110.8
2014-Aug-18 05:33N 45°50' W 084°53'1010.5
2014-Aug-18 04:33N 45°47' W 084°39'1010.4
2014-Aug-18 03:33N 45°41' W 084°27'2 1.7
2014-Aug-18 02:30N 45°39' W 084°28'3 6.3
2014-Aug-18 02:00N 45°36' W 084°30'3 6.2 1016.910.8 15.9
2014-Aug-18 01:28N 45°39' W 084°28'0 0.0
2014-Aug-18 00:28N 45°39' W 084°28'3 1.3
2014-Aug-17 22:00N 45°36' W 084°30'15 7.3 050 / 21017.610.8 18.9
2014-Aug-17 20:00N 45°24' W 084°18'1711.5 070 / 61016.910.8 16.6
2014-Aug-17 18:33N 45°39' W 084°28'0 0.0
2014-Aug-17 17:33N 45°39' W 084°28'0 0.0
2014-Aug-17 16:33N 45°39' W 084°28'0 0.0
2014-Aug-17 15:33N 45°39' W 084°28'0 0.0
2014-Aug-17 14:33N 45°39' W 084°28'0 0.0
2014-Aug-17 13:33N 45°39' W 084°28'3 5.8
2014-Aug-17 13:00N 45°36' W 084°30'3 7.3 040 / 71017.610.8 15.4
2014-Aug-17 12:33N 45°39' W 084°28'0 0.0
2014-Aug-17 11:33N 45°39' W 084°28'3 5.7
2014-Aug-17 11:00N 45°36' W 084°30'3 7.4 050 / 91016.210.8 14.9
2014-Aug-17 10:33N 45°39' W 084°28'0 0.0
2014-Aug-17 09:33N 45°39' W 084°28'1729.8
2014-Aug-17 09:00N 45°24' W 084°18'1737.9 350 / 61015.9 13.8
2014-Aug-17 08:33N 45°39' W 084°28'0 0.0
2014-Aug-17 07:33N 45°39' W 084°28'1729.5
2014-Aug-17 07:00N 45°24' W 084°18'1738.0 350 / 61015.2 14.4
2014-Aug-17 06:33N 45°39' W 084°28'0 0.0
2014-Aug-17 05:33N 45°39' W 084°28'0 0.0
2014-Aug-17 04:33N 45°39' W 084°28'0 0.0
2014-Aug-17 03:33N 45°39' W 084°28'0 0.0
2014-Aug-17 02:33N 45°39' W 084°28'0 0.0
2014-Aug-17 01:33N 45°39' W 084°28'3 5.7
2014-Aug-17 01:00N 45°36' W 084°30'3 7.3 290 / 31012.810.8 18.3
2014-Aug-17 00:33N 45°39' W 084°28'0 0.0
2014-Aug-16 23:33N 45°39' W 084°28'0 0.0
2014-Aug-16 22:33N 45°39' W 084°28'0 0.0
2014-Aug-16 21:33N 45°39' W 084°28'1729.5
2014-Aug-16 21:00N 45°24' W 084°18'1738.0 320 / 51011.110.8 21.1
2014-Aug-16 20:33N 45°39' W 084°28'0 0.0
2014-Aug-16 19:33N 45°39' W 084°28'0 0.0
2014-Aug-16 18:33N 45°39' W 084°28'1729.5
2014-Aug-16 18:00N 45°24' W 084°18'1738.2 310 / 171009.410.8 19.4
2014-Aug-16 17:33N 45°39' W 084°28'0 0.0
2014-Aug-16 16:33N 45°39' W 084°28'0 0.0
2014-Aug-16 15:33N 45°39' W 084°28'3 5.7
2014-Aug-16 15:00N 45°36' W 084°30'3 7.4 270 / 41009.1 5.4 19.2
2014-Aug-16 14:33N 45°39' W 084°28'0 0.0
2014-Aug-16 13:33N 45°39' W 084°28'0 0.0
2014-Aug-16 12:33N 45°39' W 084°28'0 0.0
2014-Aug-16 11:33N 45°39' W 084°28'0 0.0
2014-Aug-16 10:33N 45°39' W 084°28'0 0.0
2014-Aug-16 09:33N 45°39' W 084°28'0 0.0
2014-Aug-16 08:33N 45°39' W 084°28'0 0.0
2014-Aug-16 07:33N 45°39' W 084°28'0 0.0
2014-Aug-16 06:33N 45°39' W 084°28'0 0.0
2014-Aug-16 05:33N 45°39' W 084°28'0 0.0
2014-Aug-16 04:33N 45°39' W 084°28'0 0.0
2014-Aug-16 03:33N 45°39' W 084°28'0 0.0
2014-Aug-16 02:33N 45°39' W 084°28'3 5.7
2014-Aug-16 02:00N 45°36' W 084°30'3 7.4 210 / 61012.510.8 16.4
2014-Aug-16 01:33N 45°39' W 084°28'3 5.7
2014-Aug-16 01:00N 45°36' W 084°30'3 7.4 230 / 81012.510.8 17.0
2014-Aug-16 00:33N 45°39' W 084°28'0 0.0
2014-Aug-15 23:33N 45°39' W 084°28'0 0.0
2014-Aug-15 22:33N 45°39' W 084°28'0 0.0
2014-Aug-15 21:33N 45°39' W 084°28'0 0.0
2014-Aug-15 20:33N 45°39' W 084°28'0 0.0
2014-Aug-15 19:33N 45°39' W 084°28'0 0.0
2014-Aug-15 18:33N 45°39' W 084°28'0 0.0
2014-Aug-15 17:33N 45°39' W 084°28'0 0.0
2014-Aug-15 16:33N 45°39' W 084°28'0 0.0
2014-Aug-15 15:33N 45°39' W 084°28'0 0.0
2014-Aug-15 14:33N 45°39' W 084°28'0 0.0
2014-Aug-15 13:33N 45°39' W 084°28'0 0.0
2014-Aug-15 12:33N 45°39' W 084°28'0 0.0
2014-Aug-15 11:33N 45°39' W 084°28'0 0.0
2014-Aug-15 10:33N 45°39' W 084°28'0 0.0
2014-Aug-15 09:33N 45°39' W 084°28'0 0.0
2014-Aug-15 08:33N 45°39' W 084°28'0 0.0
2014-Aug-15 07:33N 45°39' W 084°28'0 0.0
2014-Aug-15 06:33N 45°39' W 084°28'0 0.0
2014-Aug-15 05:33N 45°39' W 084°28'0 0.0
2014-Aug-15 04:33N 45°39' W 084°28'0 0.0
2014-Aug-15 03:33N 45°39' W 084°28'0 0.0
2014-Aug-15 02:33N 45°39' W 084°28'0 0.0
2014-Aug-15 01:33N 45°39' W 084°28'0 0.0
2014-Aug-15 00:33N 45°39' W 084°28'0 0.0
2014-Aug-14 23:33N 45°39' W 084°28'0 0.0
2014-Aug-14 22:33N 45°39' W 084°28'0 0.0
2014-Aug-14 21:33N 45°39' W 084°28'0 0.0
2014-Aug-14 20:33N 45°39' W 084°28'0 0.0
2014-Aug-14 19:33N 45°39' W 084°28'0 0.0
2014-Aug-14 18:33N 45°39' W 084°28'0 0.0
2014-Aug-14 17:33N 45°39' W 084°28'0 0.0
2014-Aug-14 16:33N 45°39' W 084°28'0 0.0
2014-Aug-14 15:33N 45°39' W 084°28'0 0.0
2014-Aug-14 14:33N 45°39' W 084°28'0 0.0
2014-Aug-14 13:33N 45°39' W 084°28'1 1.5
2014-Aug-14 12:33N 45°40' W 084°27'9 9.0
2014-Aug-14 11:34N 45°46' W 084°37'4 7.2
2014-Aug-14 11:00N 45°48' W 084°42'612.9 320 / 101017.910.8 0.511.6
2014-Aug-14 10:33N 45°49' W 084°50'1010.0
2014-Aug-14 09:33N 45°51' W 085°04'2238.0
2014-Aug-14 09:00N 45°30' W 085°12'2251.4 350 / 151017.6 0.512.2
2014-Aug-14 08:34N 45°52' W 085°18'1010.0
2014-Aug-14 07:33N 45°53' W 085°33'1010.2
2014-Aug-14 06:33N 45°52' W 085°47'1010.3
2014-Aug-14 05:33N 45°51' W 086°02'2136.8
2014-Aug-14 05:00N 45°30' W 086°06'38 9.6 330 / 201018.6 1.012.7
2014-Aug-14 01:00N 45°24' W 087°00'   010 / 181017.210.8 1.015.5
Track history (hours):
 
Tides and Currents Weather Stations Pressure Air Temp Water Temp Dewpoint Dewpoint Depression Visibility Wind Speed Wind Dir Waves Ship Positions

Michigan

More information available from US FCC via Universal Licensing System and Coast Guard Vessel Documentation Center.

Last reported at 2014-Aug-22 04:00 UTC. Time now 2014-Aug-23 13:28 UTC.
Position N 43°30' W 082°30'.

Length 144 m; draft 4.3 m.

Type: Ship (hazmat cat D). MMSI: 303583000.

Wind from 070 at 5 knots

Barometer 1015.9 mb
Air temperature 18.8 ° C

Date/timePositionNaut miles runAvg speedWind from/ knotsBaromVisibWave heightAir tempDewpointWater temp
2014-Aug-22 04:00N 43°30' W 082°30'12 4.0 070 / 51015.9 18.8
2014-Aug-22 01:00N 43°42' W 082°30'14110.5 080 / 41015.9 18.3
2014-Aug-21 11:33N 45°41' W 084°17'1010.2
2014-Aug-21 10:33N 45°44' W 084°32'1010.3
2014-Aug-21 09:34N 45°49' W 084°44'1010.2
2014-Aug-21 08:33N 45°50' W 084°59'1010.2
2014-Aug-21 07:34N 45°52' W 085°13'1010.1
2014-Aug-21 06:33N 45°53' W 085°28'10 9.8
2014-Aug-21 05:33N 45°50' W 085°41'1010.3
2014-Aug-21 04:34N 45°46' W 085°54'1010.3
2014-Aug-21 03:34N 45°41' W 086°07'1010.1
2014-Aug-21 02:33N 45°36' W 086°20'45 9.8
2014-Aug-20 22:00N 45°18' W 087°18'67 1.7 230 / 61013.510.8 0.519.5
2014-Aug-19 07:00N 44°18' W 088°00'28 2.4 220 / 71006.7 5.4 17.7
2014-Aug-18 19:00N 44°30' W 087°24'7511.0 130 / 101011.110.8 0.518.3
2014-Aug-18 12:10N 45°33' W 086°27'710.7
2014-Aug-18 11:29N 45°37' W 086°18'1010.7
2014-Aug-18 10:33N 45°42' W 086°05'1110.7
2014-Aug-18 09:33N 45°47' W 085°52'1110.6
2014-Aug-18 08:33N 45°52' W 085°39'1010.3
2014-Aug-18 07:33N 45°53' W 085°24'1110.9
2014-Aug-18 06:33N 45°52' W 085°08'1110.8
2014-Aug-18 05:33N 45°50' W 084°53'1010.5
2014-Aug-18 04:33N 45°47' W 084°39'1010.4
2014-Aug-18 03:33N 45°41' W 084°27'2 1.7
2014-Aug-18 02:30N 45°39' W 084°28'3 6.3
2014-Aug-18 02:00N 45°36' W 084°30'3 6.2 1016.910.8 15.9
2014-Aug-18 01:28N 45°39' W 084°28'0 0.0
2014-Aug-18 00:28N 45°39' W 084°28'3 1.3
2014-Aug-17 22:00N 45°36' W 084°30'15 7.3 050 / 21017.610.8 18.9
2014-Aug-17 20:00N 45°24' W 084°18'1711.5 070 / 61016.910.8 16.6
2014-Aug-17 18:33N 45°39' W 084°28'0 0.0
2014-Aug-17 17:33N 45°39' W 084°28'0 0.0
2014-Aug-17 16:33N 45°39' W 084°28'0 0.0
2014-Aug-17 15:33N 45°39' W 084°28'0 0.0
2014-Aug-17 14:33N 45°39' W 084°28'0 0.0
2014-Aug-17 13:33N 45°39' W 084°28'3 5.8
2014-Aug-17 13:00N 45°36' W 084°30'3 7.3 040 / 71017.610.8 15.4
2014-Aug-17 12:33N 45°39' W 084°28'0 0.0
2014-Aug-17 11:33N 45°39' W 084°28'3 5.7
2014-Aug-17 11:00N 45°36' W 084°30'3 7.4 050 / 91016.210.8 14.9
2014-Aug-17 10:33N 45°39' W 084°28'0 0.0
2014-Aug-17 09:33N 45°39' W 084°28'1729.8
2014-Aug-17 09:00N 45°24' W 084°18'1737.9 350 / 61015.9 13.8
2014-Aug-17 08:33N 45°39' W 084°28'0 0.0
2014-Aug-17 07:33N 45°39' W 084°28'1729.5
2014-Aug-17 07:00N 45°24' W 084°18'1738.0 350 / 61015.2 14.4
2014-Aug-17 06:33N 45°39' W 084°28'0 0.0
2014-Aug-17 05:33N 45°39' W 084°28'0 0.0
2014-Aug-17 04:33N 45°39' W 084°28'0 0.0
2014-Aug-17 03:33N 45°39' W 084°28'0 0.0
2014-Aug-17 02:33N 45°39' W 084°28'0 0.0
2014-Aug-17 01:33N 45°39' W 084°28'3 5.7
2014-Aug-17 01:00N 45°36' W 084°30'3 7.3 290 / 31012.810.8 18.3
2014-Aug-17 00:33N 45°39' W 084°28'0 0.0
2014-Aug-16 23:33N 45°39' W 084°28'0 0.0
2014-Aug-16 22:33N 45°39' W 084°28'0 0.0
2014-Aug-16 21:33N 45°39' W 084°28'1729.5
2014-Aug-16 21:00N 45°24' W 084°18'1738.0 320 / 51011.110.8 21.1
2014-Aug-16 20:33N 45°39' W 084°28'0 0.0
2014-Aug-16 19:33N 45°39' W 084°28'0 0.0
2014-Aug-16 18:33N 45°39' W 084°28'1729.5
2014-Aug-16 18:00N 45°24' W 084°18'1738.2 310 / 171009.410.8 19.4
2014-Aug-16 17:33N 45°39' W 084°28'0 0.0
2014-Aug-16 16:33N 45°39' W 084°28'0 0.0
2014-Aug-16 15:33N 45°39' W 084°28'3 5.7
2014-Aug-16 15:00N 45°36' W 084°30'3 7.4 270 / 41009.1 5.4 19.2
2014-Aug-16 14:33N 45°39' W 084°28'0 0.0
2014-Aug-16 13:33N 45°39' W 084°28'0 0.0
2014-Aug-16 12:33N 45°39' W 084°28'0 0.0
2014-Aug-16 11:33N 45°39' W 084°28'0 0.0
2014-Aug-16 10:33N 45°39' W 084°28'0 0.0
2014-Aug-16 09:33N 45°39' W 084°28'0 0.0
2014-Aug-16 08:33N 45°39' W 084°28'0 0.0
2014-Aug-16 07:33N 45°39' W 084°28'0 0.0
2014-Aug-16 06:33N 45°39' W 084°28'0 0.0
2014-Aug-16 05:33N 45°39' W 084°28'0 0.0
2014-Aug-16 04:33N 45°39' W 084°28'0 0.0
2014-Aug-16 03:33N 45°39' W 084°28'0 0.0
2014-Aug-16 02:33N 45°39' W 084°28'3 5.7
2014-Aug-16 02:00N 45°36' W 084°30'3 7.4 210 / 61012.510.8 16.4
2014-Aug-16 01:33N 45°39' W 084°28'3 5.7
2014-Aug-16 01:00N 45°36' W 084°30'3 7.4 230 / 81012.510.8 17.0
2014-Aug-16 00:33N 45°39' W 084°28'0 0.0
2014-Aug-15 23:33N 45°39' W 084°28'0 0.0
2014-Aug-15 22:33N 45°39' W 084°28'0 0.0
2014-Aug-15 21:33N 45°39' W 084°28'0 0.0
2014-Aug-15 20:33N 45°39' W 084°28'0 0.0
2014-Aug-15 19:33N 45°39' W 084°28'0 0.0
2014-Aug-15 18:33N 45°39' W 084°28'0 0.0
2014-Aug-15 17:33N 45°39' W 084°28'0 0.0
2014-Aug-15 16:33N 45°39' W 084°28'0 0.0
2014-Aug-15 15:33N 45°39' W 084°28'0 0.0
2014-Aug-15 14:33N 45°39' W 084°28'0 0.0
2014-Aug-15 13:33N 45°39' W 084°28'0 0.0
2014-Aug-15 12:33N 45°39' W 084°28'0 0.0
2014-Aug-15 11:33N 45°39' W 084°28'0 0.0
2014-Aug-15 10:33N 45°39' W 084°28'0 0.0
2014-Aug-15 09:33N 45°39' W 084°28'0 0.0
2014-Aug-15 08:33N 45°39' W 084°28'0 0.0
2014-Aug-15 07:33N 45°39' W 084°28'0 0.0
2014-Aug-15 06:33N 45°39' W 084°28'0 0.0
2014-Aug-15 05:33N 45°39' W 084°28'0 0.0
2014-Aug-15 04:33N 45°39' W 084°28'0 0.0
2014-Aug-15 03:33N 45°39' W 084°28'0 0.0
2014-Aug-15 02:33N 45°39' W 084°28'0 0.0
2014-Aug-15 01:33N 45°39' W 084°28'0 0.0
2014-Aug-15 00:33N 45°39' W 084°28'0 0.0
2014-Aug-14 23:33N 45°39' W 084°28'0 0.0
2014-Aug-14 22:33N 45°39' W 084°28'0 0.0
2014-Aug-14 21:33N 45°39' W 084°28'0 0.0
2014-Aug-14 20:33N 45°39' W 084°28'0 0.0
2014-Aug-14 19:33N 45°39' W 084°28'0 0.0
2014-Aug-14 18:33N 45°39' W 084°28'0 0.0
2014-Aug-14 17:33N 45°39' W 084°28'0 0.0
2014-Aug-14 16:33N 45°39' W 084°28'0 0.0
2014-Aug-14 15:33N 45°39' W 084°28'0 0.0
2014-Aug-14 14:33N 45°39' W 084°28'0 0.0
2014-Aug-14 13:33N 45°39' W 084°28'1 1.5
2014-Aug-14 12:33N 45°40' W 084°27'9 9.0
2014-Aug-14 11:34N 45°46' W 084°37'4 7.2
2014-Aug-14 11:00N 45°48' W 084°42'612.9 320 / 101017.910.8 0.511.6
2014-Aug-14 10:33N 45°49' W 084°50'1010.0
2014-Aug-14 09:33N 45°51' W 085°04'2238.0
2014-Aug-14 09:00N 45°30' W 085°12'2251.4 350 / 151017.6 0.512.2
2014-Aug-14 08:34N 45°52' W 085°18'1010.0
2014-Aug-14 07:33N 45°53' W 085°33'1010.2
2014-Aug-14 06:33N 45°52' W 085°47'1010.3
2014-Aug-14 05:33N 45°51' W 086°02'2136.8
2014-Aug-14 05:00N 45°30' W 086°06'38 9.6 330 / 201018.6 1.012.7
2014-Aug-14 01:00N 45°24' W 087°00'   010 / 181017.210.8 1.015.5

Dump ship's entire track history